createdAt,value
2019-03-24T00:01:03.573Z,80.80
2019-03-24T00:03:33.529Z,77.90
2019-03-24T00:06:03.502Z,85.57
2019-03-24T00:08:33.485Z,82.15
2019-03-24T00:11:03.987Z,84.52
2019-03-24T00:13:33.966Z,74.42
2019-03-24T00:16:03.899Z,79.82
2019-03-24T00:18:33.890Z,85.53
2019-03-24T00:21:03.863Z,74.92
2019-03-24T00:23:33.850Z,77.95
2019-03-24T00:26:03.817Z,75.37
2019-03-24T00:28:33.821Z,80.28
2019-03-24T00:31:03.774Z,83.05
2019-03-24T00:33:33.786Z,78.95
2019-03-24T00:36:03.776Z,78.90
2019-03-24T00:38:33.745Z,75.12
2019-03-24T00:41:04.015Z,78.50
2019-03-24T00:43:34.008Z,79.37
2019-03-24T00:46:03.970Z,69.50
2019-03-24T00:48:33.961Z,66.92
2019-03-24T00:51:03.931Z,89.15
2019-03-24T00:53:33.886Z,80.00
2019-03-24T00:56:03.921Z,78.05
2019-03-24T00:58:33.903Z,70.57
2019-03-24T01:01:04.185Z,66.28
2019-03-24T01:03:34.146Z,74.35
2019-03-24T01:06:04.122Z,71.90
2019-03-24T01:08:34.473Z,75.85
2019-03-24T01:11:04.516Z,68.33
2019-03-24T01:13:34.921Z,76.57
2019-03-24T01:16:05.193Z,73.45
2019-03-24T01:18:35.466Z,81.50
2019-03-24T01:21:05.479Z,75.78
2019-03-24T01:23:35.430Z,74.97
2019-03-24T01:26:05.410Z,76.15
2019-03-24T01:28:35.364Z,67.95
2019-03-24T01:31:05.418Z,71.70
2019-03-24T01:33:35.469Z,82.75
2019-03-24T01:36:05.414Z,76.95
2019-03-24T01:38:35.431Z,72.87
2019-03-24T01:41:07.983Z,80.67
2019-03-24T01:43:37.403Z,77.92
2019-03-24T01:46:07.369Z,77.40
2019-03-24T01:48:37.724Z,90.80
2019-03-24T01:51:07.709Z,83.45
2019-03-24T01:53:37.714Z,83.55
2019-03-24T01:56:07.742Z,79.07
2019-03-24T01:58:37.709Z,79.80
2019-03-24T02:01:08.046Z,81.87
2019-03-24T02:03:38.046Z,79.30
2019-03-24T02:06:07.994Z,82.02
2019-03-24T02:08:37.953Z,76.62
2019-03-24T02:11:07.944Z,79.75
2019-03-24T02:13:37.877Z,93.03
2019-03-24T02:16:09.567Z,88.95
2019-03-24T02:18:41.031Z,82.47
2019-03-24T02:21:10.993Z,78.62
2019-03-24T02:23:41.001Z,76.17
2019-03-24T02:26:10.965Z,73.28
2019-03-24T02:28:40.971Z,69.45
2019-03-24T02:31:10.961Z,66.15
2019-03-24T02:33:41.290Z,68.25
2019-03-24T02:36:11.272Z,59.03
2019-03-24T02:38:41.420Z,62.15
2019-03-24T02:41:11.407Z,60.28
2019-03-24T02:43:41.342Z,55.98
2019-03-24T02:46:23.679Z,60.23
2019-03-24T02:48:42.882Z,62.53
2019-03-24T02:51:12.853Z,53.87
2019-03-24T02:53:42.811Z,50.03
2019-03-24T02:56:12.756Z,72.35
2019-03-24T02:58:43.021Z,60.80
2019-03-24T03:01:13.011Z,52.62
2019-03-24T03:03:43.065Z,57.38
2019-03-24T03:06:13.044Z,53.50
2019-03-24T03:08:42.986Z,63.78
2019-03-24T03:11:12.985Z,67.58
2019-03-24T03:13:42.977Z,54.00
2019-03-24T03:16:13.366Z,65.97
2019-03-24T03:18:43.335Z,60.60
2019-03-24T03:21:13.433Z,66.77
2019-03-24T03:23:43.379Z,62.78
2019-03-24T03:26:13.365Z,57.15
2019-03-24T03:28:43.351Z,54.18
2019-03-24T03:31:13.365Z,66.95
2019-03-24T03:33:43.323Z,55.75
2019-03-24T03:36:13.329Z,58.78
2019-03-24T03:38:43.275Z,52.03
2019-03-24T03:41:13.225Z,54.13
2019-03-24T03:43:43.192Z,60.00
2019-03-24T03:46:13.131Z,58.48
2019-03-24T03:48:43.079Z,52.30
2019-03-24T03:51:13.048Z,55.50
2019-03-24T03:53:43.041Z,55.20
2019-03-24T03:56:12.979Z,49.45
2019-03-24T03:58:42.977Z,54.63
2019-03-24T04:01:12.929Z,45.60
2019-03-24T04:03:42.937Z,50.38
2019-03-24T04:06:12.899Z,49.20
2019-03-24T04:08:42.882Z,49.25
2019-03-24T04:11:12.850Z,46.35
2019-03-24T04:13:42.847Z,48.75
2019-03-24T04:16:12.805Z,45.85
2019-03-24T04:18:42.809Z,44.45
2019-03-24T04:21:12.762Z,46.95
2019-03-24T04:23:42.735Z,46.55
2019-03-24T04:26:12.721Z,51.75
2019-03-24T04:28:43.085Z,48.75
2019-03-24T04:31:13.051Z,50.23
2019-03-24T04:33:43.004Z,42.85
2019-03-24T04:36:13.108Z,44.10
2019-03-24T04:38:43.058Z,47.17
2019-03-24T04:41:13.038Z,47.53
2019-03-24T04:43:43.053Z,44.13
2019-03-24T04:46:13.365Z,50.55
2019-03-24T04:48:43.330Z,43.40
2019-03-24T04:51:13.294Z,48.08
2019-03-24T04:53:43.679Z,45.65
2019-03-24T04:56:13.648Z,48.35
2019-03-24T04:58:43.595Z,47.03
2019-03-24T05:01:13.574Z,49.83
2019-03-24T05:03:43.516Z,50.95
2019-03-24T05:06:13.978Z,46.70
2019-03-24T05:08:44.942Z,54.05
2019-03-24T05:11:14.893Z,53.63
2019-03-24T05:13:45.261Z,54.20
2019-03-24T05:16:15.198Z,50.35
2019-03-24T05:18:45.180Z,49.38
2019-03-24T05:21:15.593Z,47.08
2019-03-24T05:23:46.187Z,53.98
2019-03-24T05:26:16.445Z,56.58
2019-03-24T05:28:46.413Z,53.00
2019-03-24T05:31:16.747Z,41.37
2019-03-24T05:33:46.701Z,47.62
2019-03-24T05:36:16.727Z,48.87
2019-03-24T05:38:46.691Z,51.45
2019-03-24T05:41:16.671Z,41.85
2019-03-24T05:43:46.699Z,47.50
2019-03-24T05:46:16.647Z,53.38
2019-03-24T05:48:46.629Z,43.78
2019-03-24T05:51:16.609Z,48.13
2019-03-24T05:53:46.589Z,42.65
2019-03-24T05:56:16.551Z,48.35
2019-03-24T05:58:46.525Z,54.88
2019-03-24T06:01:16.497Z,45.48
2019-03-24T06:03:46.446Z,45.25
2019-03-24T06:06:16.387Z,51.25
2019-03-24T06:08:46.386Z,56.33
2019-03-24T06:11:16.349Z,50.10
2019-03-24T06:13:46.290Z,46.60
2019-03-24T06:16:16.266Z,43.65
2019-03-24T06:18:46.586Z,66.55
2019-03-24T06:21:16.649Z,42.85
2019-03-24T06:23:46.597Z,45.80
2019-03-24T06:26:16.547Z,40.40
2019-03-24T06:28:46.536Z,36.55
2019-03-24T06:31:16.525Z,38.08
2019-03-24T06:33:46.478Z,45.67
2019-03-24T06:36:16.467Z,34.05
2019-03-24T06:38:46.446Z,44.18
2019-03-24T06:41:16.729Z,51.88
2019-03-24T06:43:46.725Z,49.85
2019-03-24T06:46:16.697Z,37.58
2019-03-24T06:48:46.676Z,43.20
2019-03-24T06:51:16.621Z,37.40
2019-03-24T06:53:46.559Z,36.45
2019-03-24T06:56:16.558Z,46.95
2019-03-24T06:58:46.525Z,42.15
2019-03-24T07:01:16.557Z,41.70
2019-03-24T07:03:46.508Z,52.30
2019-03-24T07:06:16.994Z,49.58
2019-03-24T07:08:46.974Z,44.48
2019-03-24T07:11:16.953Z,48.75
2019-03-24T07:13:46.911Z,41.75
2019-03-24T07:16:18.557Z,46.83
2019-03-24T07:18:48.686Z,54.50
2019-03-24T07:21:18.666Z,50.70
2019-03-24T07:23:48.611Z,43.38
2019-03-24T07:26:18.741Z,48.17
2019-03-24T07:28:49.212Z,47.20
2019-03-24T07:31:19.195Z,45.28
2019-03-24T07:33:50.026Z,46.80
2019-03-24T07:36:20.014Z,40.60
2019-03-24T07:38:50.278Z,39.70
2019-03-24T07:41:20.292Z,52.40
2019-03-24T07:43:50.227Z,48.33
2019-03-24T07:46:20.518Z,38.50
2019-03-24T07:48:50.898Z,39.98
2019-03-24T07:51:20.870Z,46.37
2019-03-24T07:53:51.219Z,53.30
2019-03-24T07:56:21.188Z,43.02
2019-03-24T07:58:51.193Z,51.58
2019-03-24T08:01:21.161Z,68.83
2019-03-24T08:03:51.144Z,43.38
2019-03-24T08:06:21.152Z,49.10
2019-03-24T08:08:51.462Z,45.73
2019-03-24T08:11:21.417Z,50.73
2019-03-24T08:13:54.024Z,42.85
2019-03-24T08:16:23.025Z,45.67
2019-03-24T08:18:53.373Z,61.42
2019-03-24T08:21:23.312Z,60.20
2019-03-24T08:23:53.385Z,44.35
2019-03-24T08:26:23.355Z,41.33
2019-03-24T08:28:53.361Z,45.03
2019-03-24T08:31:23.298Z,44.80
2019-03-24T08:33:53.313Z,42.67
2019-03-24T08:36:23.684Z,57.05
2019-03-24T08:38:53.685Z,57.58
2019-03-24T08:41:23.682Z,43.28
2019-03-24T08:43:53.637Z,53.60
2019-03-24T08:46:23.587Z,51.55
2019-03-24T08:48:53.578Z,49.48
2019-03-24T08:51:23.533Z,49.67
2019-03-24T08:53:53.903Z,52.43
2019-03-24T08:56:26.236Z,49.48
2019-03-24T08:58:56.686Z,58.13
2019-03-24T09:01:26.630Z,56.90
2019-03-24T09:03:56.958Z,51.33
2019-03-24T09:06:26.907Z,63.17
2019-03-24T09:08:57.255Z,61.65
2019-03-24T09:11:31.506Z,49.00
2019-03-24T09:13:59.057Z,58.63
2019-03-24T09:16:29.120Z,57.62
2019-03-24T09:18:59.171Z,55.58
2019-03-24T09:21:29.158Z,64.62
2019-03-24T09:23:59.187Z,56.63
2019-03-24T09:26:29.265Z,51.85
2019-03-24T09:28:59.501Z,60.05
2019-03-24T09:31:29.714Z,53.38
2019-03-24T09:33:59.724Z,51.00
2019-03-24T09:36:29.761Z,54.48
2019-03-24T09:39:00.158Z,55.30
2019-03-24T09:41:30.386Z,59.93
2019-03-24T09:44:00.427Z,59.58
2019-03-24T09:46:30.493Z,73.45
2019-03-24T09:49:03.218Z,63.78
2019-03-24T09:51:32.101Z,58.90
2019-03-24T09:54:02.966Z,62.45
2019-03-24T09:56:33.252Z,55.83
2019-03-24T09:59:03.369Z,54.40
2019-03-24T10:01:33.357Z,68.15
2019-03-24T10:04:03.332Z,57.75
2019-03-24T10:06:33.322Z,57.08
2019-03-24T10:09:03.637Z,54.75
2019-03-24T10:11:34.207Z,55.20
2019-03-24T10:14:04.783Z,51.37
2019-03-24T10:16:34.848Z,63.78
2019-03-24T10:19:13.586Z,59.27
2019-03-24T10:21:36.425Z,50.45
2019-03-24T10:24:07.979Z,59.65
2019-03-24T10:26:38.722Z,56.60
2019-03-24T10:29:08.761Z,65.87
2019-03-24T10:31:38.816Z,56.20
2019-03-24T10:34:09.053Z,55.88
2019-03-24T10:36:39.332Z,46.98
2019-03-24T10:39:09.306Z,46.60
2019-03-24T10:41:39.679Z,54.48
2019-03-24T10:44:10.097Z,53.83
2019-03-24T10:46:40.544Z,53.15
2019-03-24T10:49:10.754Z,46.85
2019-03-24T10:51:40.995Z,52.55
2019-03-24T10:54:11.057Z,51.33
2019-03-24T10:56:41.096Z,48.65
2019-03-24T10:59:11.119Z,52.35
2019-03-24T11:01:41.170Z,50.12
2019-03-24T11:04:11.199Z,50.80
2019-03-24T11:06:41.345Z,45.60
2019-03-24T11:09:12.070Z,45.83
2019-03-24T11:11:42.102Z,51.55
2019-03-24T11:14:12.832Z,47.40
2019-03-24T11:16:44.489Z,45.98
2019-03-24T11:19:14.525Z,45.75
2019-03-24T11:21:44.534Z,44.93
2019-03-24T11:24:14.832Z,42.17
2019-03-24T11:26:46.825Z,41.40
2019-03-24T11:29:16.864Z,39.88
2019-03-24T11:31:46.911Z,56.75
2019-03-24T11:34:16.910Z,37.83
2019-03-24T11:36:47.926Z,43.85
2019-03-24T11:39:17.966Z,41.35
2019-03-24T11:41:47.931Z,39.75
2019-03-24T11:44:17.950Z,39.50
2019-03-24T11:46:47.939Z,38.50
2019-03-24T11:49:21.017Z,45.88
2019-03-24T11:51:51.456Z,39.13
2019-03-24T11:54:21.871Z,44.33
2019-03-24T11:56:52.132Z,38.80
2019-03-24T11:59:22.755Z,41.35
2019-03-24T12:01:53.843Z,39.10
2019-03-24T12:04:23.942Z,37.75
2019-03-24T12:06:54.004Z,38.92
2019-03-24T12:09:24.162Z,37.78
2019-03-24T12:11:54.174Z,38.48
2019-03-24T12:14:24.431Z,38.70
2019-03-24T12:16:54.677Z,38.78
2019-03-24T12:19:24.975Z,35.95
2019-03-24T12:21:54.957Z,40.60
2019-03-24T12:24:24.990Z,39.50
2019-03-24T12:26:55.466Z,42.60
2019-03-24T12:29:26.015Z,34.45
2019-03-24T12:31:58.215Z,42.98
2019-03-24T12:34:28.467Z,40.70
2019-03-24T12:36:59.041Z,36.88
2019-03-24T12:39:30.262Z,40.67
2019-03-24T12:42:00.295Z,42.80
2019-03-24T12:44:30.324Z,39.35
2019-03-24T12:47:00.802Z,37.78
2019-03-24T12:49:30.997Z,37.28
2019-03-24T12:52:01.717Z,35.28
2019-03-24T12:54:31.865Z,35.50
2019-03-24T12:57:02.644Z,38.20
2019-03-24T12:59:33.719Z,45.17
2019-03-24T13:02:03.903Z,37.70
2019-03-24T13:04:33.998Z,40.20
2019-03-24T13:07:04.270Z,40.80
2019-03-24T13:09:34.469Z,36.55
2019-03-24T13:12:04.604Z,34.92
2019-03-24T13:14:34.611Z,36.55
2019-03-24T13:17:04.823Z,45.60
2019-03-24T13:19:36.104Z,40.52
2019-03-24T13:22:06.738Z,38.08
2019-03-24T13:24:36.797Z,36.73
2019-03-24T13:27:06.969Z,38.80
2019-03-24T13:29:37.007Z,46.45
2019-03-24T13:32:07.072Z,38.20
2019-03-24T13:34:37.092Z,38.35
2019-03-24T13:37:07.172Z,32.45
2019-03-24T13:39:37.217Z,37.45
2019-03-24T13:42:07.266Z,31.80
2019-03-24T13:44:37.302Z,31.10
2019-03-24T13:47:07.409Z,38.90
2019-03-24T13:49:37.440Z,39.75
2019-03-24T13:52:07.470Z,31.55
2019-03-24T13:54:37.503Z,34.78
2019-03-24T13:57:07.591Z,30.97
2019-03-24T13:59:37.674Z,38.25
2019-03-24T14:02:07.786Z,29.80
2019-03-24T14:04:37.903Z,31.65
2019-03-24T14:07:07.957Z,30.90
2019-03-24T14:09:37.990Z,26.52
2019-03-24T14:12:08.163Z,29.63
2019-03-24T14:14:38.536Z,31.95
2019-03-24T14:17:08.541Z,34.25
2019-03-24T14:19:38.597Z,28.17
2019-03-24T14:22:08.586Z,29.65
2019-03-24T14:24:38.593Z,23.25
2019-03-24T14:27:08.638Z,29.80
2019-03-24T14:29:38.662Z,28.98
2019-03-24T14:32:08.662Z,28.07
2019-03-24T14:34:38.722Z,45.48
2019-03-24T14:37:08.736Z,36.00
2019-03-24T14:39:38.910Z,28.55
2019-03-24T14:42:08.865Z,31.73
2019-03-24T14:44:38.855Z,35.83
2019-03-24T14:47:08.851Z,25.52
2019-03-24T14:49:38.929Z,31.37
2019-03-24T14:52:09.059Z,29.85
2019-03-24T14:54:39.565Z,22.82
2019-03-24T14:57:09.574Z,28.23
2019-03-24T14:59:39.577Z,28.50
2019-03-24T15:02:09.755Z,33.95
2019-03-24T15:04:39.927Z,28.98
2019-03-24T15:07:10.039Z,36.85
2019-03-24T15:09:40.106Z,30.90
2019-03-24T15:12:10.438Z,24.60
2019-03-24T15:14:40.918Z,21.52
2019-03-24T15:17:10.991Z,24.18
2019-03-24T15:19:41.133Z,27.87
2019-03-24T15:22:11.536Z,24.37
2019-03-24T15:24:41.662Z,20.70
2019-03-24T15:27:11.732Z,15.38
2019-03-24T15:29:41.781Z,20.60
2019-03-24T15:32:12.231Z,18.37
2019-03-24T15:34:42.285Z,20.88
2019-03-24T15:37:12.419Z,20.12
2019-03-24T15:39:42.718Z,20.43
2019-03-24T15:42:15.722Z,20.75
2019-03-24T15:44:46.120Z,18.90
2019-03-24T15:47:17.110Z,21.50
2019-03-24T15:49:47.438Z,16.00
2019-03-24T15:52:17.499Z,22.00
2019-03-24T15:54:47.613Z,21.80
2019-03-24T15:57:17.677Z,25.82
2019-03-24T15:59:47.715Z,18.10
2019-03-24T16:02:17.760Z,14.70
2019-03-24T16:04:48.261Z,18.80
2019-03-24T16:07:18.376Z,18.07
2019-03-24T16:09:48.462Z,30.48
2019-03-24T16:12:18.613Z,24.37
2019-03-24T16:14:48.888Z,17.77
2019-03-24T16:17:18.954Z,17.92
2019-03-24T16:19:49.479Z,20.80
2019-03-24T16:22:20.455Z,24.52
2019-03-24T16:24:50.577Z,29.12
2019-03-24T16:27:20.945Z,18.12
2019-03-24T16:29:51.034Z,24.80
2019-03-24T16:32:21.059Z,22.62
2019-03-24T16:34:57.350Z,25.90
2019-03-24T16:37:27.854Z,26.17
2019-03-24T16:39:58.027Z,14.93
2019-03-24T16:42:28.393Z,25.72
2019-03-24T16:44:58.445Z,18.50
2019-03-24T16:47:28.838Z,18.00
2019-03-24T16:49:58.835Z,24.50
2019-03-24T16:52:29.248Z,22.32
2019-03-24T16:54:59.310Z,21.05
2019-03-24T16:57:29.384Z,17.02
2019-03-24T16:59:59.963Z,16.95
2019-03-24T17:02:30.066Z,17.17
2019-03-24T17:05:00.410Z,25.50
2019-03-24T17:07:30.496Z,22.15
2019-03-24T17:10:00.563Z,18.70
2019-03-24T17:12:30.634Z,18.65
2019-03-24T17:15:00.714Z,16.62
2019-03-24T17:17:30.731Z,17.23
2019-03-24T17:20:01.192Z,21.87
2019-03-24T17:22:31.570Z,20.92
2019-03-24T17:25:01.646Z,23.95
2019-03-24T17:27:31.699Z,30.25
2019-03-24T17:30:01.752Z,27.00
2019-03-24T17:32:31.870Z,23.40
2019-03-24T17:35:02.306Z,33.63
2019-03-24T17:37:32.339Z,27.67
2019-03-24T17:40:02.415Z,25.60
2019-03-24T17:42:32.602Z,28.23
2019-03-24T17:45:03.257Z,31.97
2019-03-24T17:47:33.979Z,26.62
2019-03-24T17:50:05.267Z,26.15
2019-03-24T17:52:35.322Z,27.93
2019-03-24T17:55:05.793Z,24.90
2019-03-24T17:57:36.113Z,34.33
2019-03-24T18:00:08.163Z,33.10
2019-03-24T18:02:38.414Z,27.05
2019-03-24T18:05:08.785Z,23.80
2019-03-24T18:07:39.475Z,29.05
2019-03-24T18:10:11.615Z,36.83
2019-03-24T18:12:41.731Z,39.00
2019-03-24T18:15:12.420Z,40.78
2019-03-24T18:17:42.415Z,34.63
2019-03-24T18:20:15.027Z,37.10
2019-03-24T18:22:45.062Z,25.23
2019-03-24T18:25:15.109Z,27.48
2019-03-24T18:27:45.125Z,24.85
2019-03-24T18:30:15.403Z,31.45
2019-03-24T18:32:45.474Z,27.20
2019-03-24T18:35:15.879Z,34.03
2019-03-24T18:37:45.827Z,32.90
2019-03-24T18:40:16.479Z,32.17
2019-03-24T18:42:46.812Z,38.50
2019-03-24T18:45:17.470Z,34.63
2019-03-24T18:47:47.950Z,34.65
2019-03-24T18:50:18.155Z,35.98
2019-03-24T18:52:50.080Z,45.92
2019-03-24T18:55:19.899Z,45.25
2019-03-24T18:57:52.547Z,39.27
2019-03-24T19:00:23.088Z,37.28
2019-03-24T19:02:53.183Z,38.35
2019-03-24T19:05:23.469Z,39.63
2019-03-24T19:07:53.698Z,33.50
2019-03-24T19:10:23.983Z,35.33
2019-03-24T19:12:54.959Z,31.10
2019-03-24T19:15:25.043Z,31.85
2019-03-24T19:17:55.600Z,27.22
2019-03-24T19:20:25.712Z,28.87
2019-03-24T19:22:55.843Z,30.82
2019-03-24T19:25:26.354Z,30.20
2019-03-24T19:27:56.530Z,28.65
2019-03-24T19:30:38.092Z,31.97
2019-03-24T19:33:10.240Z,26.55
2019-03-24T19:35:40.912Z,23.83
2019-03-24T19:38:11.836Z,28.15
2019-03-24T19:40:42.044Z,23.73
2019-03-24T19:43:13.721Z,22.20
2019-03-24T19:45:43.841Z,31.93
2019-03-24T19:48:14.155Z,26.10
2019-03-24T19:50:46.039Z,22.17
2019-03-24T19:53:16.240Z,30.12
2019-03-24T19:55:46.375Z,28.85
2019-03-24T19:58:16.822Z,29.10
2019-03-24T20:00:48.801Z,31.37
2019-03-24T20:03:18.903Z,32.83
2019-03-24T20:05:48.935Z,30.17
2019-03-24T20:08:19.094Z,28.00
2019-03-24T20:10:49.791Z,30.27
2019-03-24T20:13:21.003Z,29.55
2019-03-24T20:15:51.166Z,33.05
2019-03-24T20:18:21.623Z,29.48
2019-03-24T20:20:52.259Z,21.45
2019-03-24T20:23:22.476Z,30.88
2019-03-24T20:25:54.326Z,36.35
2019-03-24T20:28:24.459Z,36.53
2019-03-24T20:30:54.783Z,35.70
2019-03-24T20:33:25.015Z,37.58
2019-03-24T20:35:55.502Z,34.03
2019-03-24T20:38:26.095Z,32.95
2019-03-24T20:40:56.112Z,40.10
2019-03-24T20:43:26.288Z,33.63
2019-03-24T20:45:56.443Z,32.90
2019-03-24T20:48:26.741Z,32.42
2019-03-24T20:50:57.036Z,39.90
2019-03-24T20:53:27.215Z,27.67
2019-03-24T20:55:57.291Z,31.30
2019-03-24T20:58:27.546Z,33.23
2019-03-24T21:00:57.951Z,32.05
2019-03-24T21:03:28.520Z,33.35
2019-03-24T21:05:59.122Z,34.15
2019-03-24T21:08:29.447Z,32.93
2019-03-24T21:10:59.438Z,38.80
2019-03-24T21:13:29.606Z,34.30
2019-03-24T21:15:59.700Z,34.30
2019-03-24T21:18:29.822Z,35.65
2019-03-24T21:20:59.964Z,29.45
2019-03-24T21:23:30.187Z,38.02
2019-03-24T21:26:00.236Z,34.33
2019-03-24T21:28:30.285Z,30.10
2019-03-24T21:31:00.466Z,40.83
2019-03-24T21:33:30.819Z,31.45
2019-03-24T21:36:00.852Z,33.45
2019-03-24T21:38:30.907Z,36.23
2019-03-24T21:41:01.096Z,32.45
2019-03-24T21:43:31.233Z,34.45
2019-03-24T21:46:01.373Z,33.02
2019-03-24T21:48:31.440Z,38.73
2019-03-24T21:51:01.530Z,32.75
2019-03-24T21:53:40.359Z,43.92
2019-03-24T21:56:03.875Z,37.80
2019-03-24T21:58:35.422Z,33.55
2019-03-24T22:01:05.599Z,30.60
2019-03-24T22:03:37.659Z,40.17
2019-03-24T22:06:07.689Z,43.38
2019-03-24T22:08:38.675Z,41.70
2019-03-24T22:11:08.824Z,43.13
2019-03-24T22:13:38.925Z,46.60
2019-03-24T22:16:09.459Z,41.20
2019-03-24T22:18:39.785Z,48.68
2019-03-24T22:21:10.113Z,46.85
2019-03-24T22:23:51.592Z,43.48
2019-03-24T22:26:12.142Z,48.75
2019-03-24T22:28:42.488Z,50.52
2019-03-24T22:31:13.163Z,37.30
2019-03-24T22:33:43.201Z,38.40
2019-03-24T22:36:13.300Z,37.75
2019-03-24T22:38:43.523Z,44.42
2019-03-24T22:41:14.404Z,47.78
2019-03-24T22:43:44.582Z,49.58
2019-03-24T22:46:14.641Z,48.58
2019-03-24T22:48:45.116Z,43.87
2019-03-24T22:51:15.146Z,46.55
2019-03-24T22:53:45.547Z,65.37
2019-03-24T22:56:15.566Z,44.90
2019-03-24T22:58:45.704Z,50.30
2019-03-24T23:01:17.611Z,51.95
2019-03-24T23:03:48.075Z,41.40
2019-03-24T23:06:18.100Z,51.35
2019-03-24T23:08:48.130Z,45.12
2019-03-24T23:11:18.175Z,48.50
2019-03-24T23:13:48.299Z,45.12
2019-03-24T23:16:18.415Z,43.87
2019-03-24T23:18:48.500Z,46.65
2019-03-24T23:21:18.574Z,51.20
2019-03-24T23:23:48.647Z,50.80
2019-03-24T23:26:18.782Z,62.33
2019-03-24T23:28:48.826Z,46.23
2019-03-24T23:31:19.027Z,52.60
2019-03-24T23:33:49.094Z,44.55
2019-03-24T23:36:19.723Z,50.52
2019-03-24T23:38:49.905Z,51.05
2019-03-24T23:41:19.947Z,50.85
2019-03-24T23:43:49.975Z,44.75
2019-03-24T23:46:20.158Z,50.50
2019-03-24T23:48:50.261Z,54.48
2019-03-24T23:51:20.717Z,53.58
2019-03-24T23:53:50.764Z,54.18
2019-03-24T23:56:20.819Z,45.60
2019-03-24T23:58:50.909Z,53.48
